createdAt,value
2023-03-29T00:09:28.007Z,98686.88
2023-03-29T00:29:31.059Z,98680.03
2023-03-29T00:49:34.044Z,98677.41
2023-03-29T01:09:37.055Z,98669.97
2023-03-29T01:29:40.131Z,98652.03
2023-03-29T01:49:43.622Z,98652.84
2023-03-29T02:09:46.350Z,98636.03
2023-03-29T02:29:49.375Z,98641.00
2023-03-29T02:49:52.288Z,98638.78
2023-03-29T03:09:55.033Z,98650.50
2023-03-29T03:29:57.735Z,98648.16
2023-03-29T03:50:00.524Z,98645.84
2023-03-29T04:10:03.391Z,98663.03
2023-03-29T04:30:06.333Z,98648.81
2023-03-29T04:50:09.723Z,98650.50
2023-03-29T05:10:12.522Z,98652.81
2023-03-29T05:30:16.586Z,98641.12
2023-03-29T05:50:21.681Z,98647.16
2023-03-29T06:10:24.929Z,98650.69
2023-03-29T06:30:27.671Z,98652.87
2023-03-29T06:50:30.604Z,98664.38
2023-03-29T07:10:36.364Z,98667.22
2023-03-29T07:30:39.093Z,98658.56
2023-03-29T07:50:41.879Z,98655.69
2023-03-29T08:10:46.089Z,98642.31
2023-03-29T08:30:49.501Z,98644.56
2023-03-29T08:50:54.025Z,98636.50
2023-03-29T09:10:57.499Z,98621.72
2023-03-29T09:31:00.942Z,98604.84
2023-03-29T09:51:04.403Z,98583.97
2023-03-29T10:11:07.333Z,98569.66
2023-03-29T10:31:10.091Z,98559.59
2023-03-29T10:51:13.027Z,98548.38
2023-03-29T11:11:15.782Z,98538.34
2023-03-29T11:31:18.758Z,98507.03
2023-03-29T11:51:21.628Z,98480.09
2023-03-29T12:11:24.365Z,98455.06
2023-03-29T12:31:27.156Z,98427.88
2023-03-29T12:51:30.007Z,98414.28
2023-03-29T13:11:32.706Z,98388.41
2023-03-29T13:31:36.329Z,98379.41
2023-03-29T13:51:38.955Z,98361.53
2023-03-29T14:11:41.848Z,98334.69
2023-03-29T14:31:44.809Z,98330.84
2023-03-29T14:51:48.502Z,98330.59
2023-03-29T15:11:52.174Z,98307.31
2023-03-29T15:31:55.198Z,98286.53
2023-03-29T15:51:58.039Z,98274.25
2023-03-29T16:12:02.698Z,98258.97
2023-03-29T16:32:06.873Z,98257.88
2023-03-29T16:52:09.997Z,98239.13
2023-03-29T17:12:12.897Z,98239.81
2023-03-29T17:32:15.820Z,98251.59
2023-03-29T17:52:18.841Z,98261.81
2023-03-29T18:12:21.849Z,98280.78
2023-03-29T18:32:24.693Z,98277.69
2023-03-29T18:52:27.371Z,98296.03
2023-03-29T19:12:30.410Z,98280.00
2023-03-29T19:32:33.816Z,98275.12
2023-03-29T19:52:36.935Z,98296.84
2023-03-29T20:12:39.817Z,98290.44
2023-03-29T20:32:43.236Z,98274.69
2023-03-29T20:52:45.944Z,98263.87
2023-03-29T21:12:49.719Z,98237.84
2023-03-29T21:32:52.732Z,98241.31
2023-03-29T21:52:55.391Z,98222.84
2023-03-29T22:12:58.491Z,98217.34
2023-03-29T22:33:01.964Z,98207.94
2023-03-29T22:53:04.649Z,98186.41
2023-03-29T23:13:09.919Z,98188.31
2023-03-29T23:33:12.999Z,98177.91
2023-03-29T23:53:15.914Z,98159.41
